createdAt,value
2023-03-11T00:01:42.537Z,97492.88
2023-03-11T00:05:50.454Z,97499.16
2023-03-11T00:09:58.445Z,97501.93
2023-03-11T00:14:06.982Z,97500.89
2023-03-11T00:18:15.933Z,97494.33
2023-03-11T00:22:23.862Z,97489.13
2023-03-11T00:26:32.065Z,97487.89
2023-03-11T00:30:41.656Z,97486.66
2023-03-11T00:34:49.759Z,97492.63
2023-03-11T00:38:57.512Z,97494.15
2023-03-11T00:43:05.638Z,97497.43
2023-03-11T00:47:14.202Z,97501.77
2023-03-11T00:51:21.988Z,97503.27
2023-03-11T00:55:31.803Z,97506.15
2023-03-11T00:59:41.045Z,97508.55
2023-03-11T01:03:49.643Z,97510.05
2023-03-11T01:07:56.954Z,97507.17
2023-03-11T01:12:05.724Z,97504.80
2023-03-11T01:16:13.539Z,97509.08
2023-03-11T01:20:24.271Z,97508.83
2023-03-11T01:24:32.439Z,97508.65
2023-03-11T01:28:39.839Z,97510.19
2023-03-11T01:32:47.912Z,97509.95
2023-03-11T01:36:55.547Z,97513.27
2023-03-11T01:41:03.649Z,97521.55
2023-03-11T01:45:33.085Z,97515.63
2023-03-11T01:49:42.239Z,97511.73
2023-03-11T01:53:50.149Z,97516.75
2023-03-11T01:57:58.612Z,97519.83
2023-03-11T02:02:10.472Z,97519.91
2023-03-11T02:06:21.271Z,97522.12
2023-03-11T02:10:29.754Z,97523.64
2023-03-11T02:14:38.349Z,97522.92
2023-03-11T02:18:46.832Z,97521.64
2023-03-11T02:22:57.400Z,97519.59
2023-03-11T02:27:10.006Z,97510.88
2023-03-11T02:31:18.862Z,97512.39
2023-03-11T02:35:26.972Z,97512.03
2023-03-11T02:39:37.343Z,97516.85
2023-03-11T02:43:46.682Z,97518.41
2023-03-11T02:47:55.655Z,97519.17
2023-03-11T02:52:03.331Z,97526.05
2023-03-11T02:56:11.373Z,97567.34
2023-03-11T03:00:21.280Z,97591.58
2023-03-11T03:04:28.944Z,97596.24
2023-03-11T03:08:37.275Z,97599.50
2023-03-11T03:12:46.241Z,97614.36
2023-03-11T03:16:54.681Z,97625.96
2023-03-11T03:21:02.856Z,97638.11
2023-03-11T03:25:12.279Z,97642.34
2023-03-11T03:29:21.137Z,97650.58
2023-03-11T03:33:28.899Z,97659.58
2023-03-11T03:37:38.370Z,97667.66
2023-03-11T03:41:46.280Z,97672.71
2023-03-11T03:46:01.230Z,97675.61
2023-03-11T03:50:13.225Z,97678.46
2023-03-11T03:54:21.146Z,97686.43
2023-03-11T03:58:28.673Z,97695.64
2023-03-11T04:02:36.199Z,97705.09
2023-03-11T04:06:45.255Z,97711.27
2023-03-11T04:11:00.570Z,97723.70
2023-03-11T04:15:11.155Z,97725.60
2023-03-11T04:19:19.585Z,97734.30
2023-03-11T04:23:27.445Z,97739.58
2023-03-11T04:27:35.309Z,97751.93
2023-03-11T04:31:43.069Z,97750.30
2023-03-11T04:35:51.713Z,97746.75
2023-03-11T04:39:59.491Z,97763.18
2023-03-11T04:44:07.683Z,97772.89
2023-03-11T04:48:15.579Z,97770.03
2023-03-11T04:52:23.251Z,97773.36
2023-03-11T04:56:30.820Z,97774.52
2023-03-11T05:00:38.754Z,97769.49
2023-03-11T05:04:46.557Z,97777.95
2023-03-11T05:08:54.304Z,97776.96
2023-03-11T05:13:01.852Z,97784.81
2023-03-11T05:17:13.800Z,97795.76
2023-03-11T05:21:22.657Z,97802.87
2023-03-11T05:25:30.283Z,97807.33
2023-03-11T05:29:38.224Z,97824.99
2023-03-11T05:33:45.845Z,97830.25
2023-03-11T05:37:53.822Z,97832.14
2023-03-11T05:42:03.891Z,97844.20
2023-03-11T05:46:13.363Z,97864.02
2023-03-11T05:50:22.111Z,97857.88
2023-03-11T05:54:30.031Z,97867.08
2023-03-11T05:58:38.015Z,97876.51
2023-03-11T06:02:47.159Z,97886.45
2023-03-11T06:06:56.422Z,97903.58
2023-03-11T06:11:08.881Z,97905.38
2023-03-11T06:15:16.860Z,97927.11
2023-03-11T06:19:24.752Z,97925.98
2023-03-11T06:23:33.235Z,97942.36
2023-03-11T06:27:44.645Z,97950.45
2023-03-11T06:31:52.570Z,97964.66
2023-03-11T06:36:01.812Z,97976.99
2023-03-11T06:40:12.677Z,97997.09
2023-03-11T06:44:20.341Z,98001.71
2023-03-11T06:48:30.030Z,98013.09
2023-03-11T06:52:37.985Z,98024.15
2023-03-11T06:56:45.570Z,98039.77
2023-03-11T07:00:53.770Z,98050.54
2023-03-11T07:05:01.872Z,98066.05
2023-03-11T07:09:09.852Z,98075.03
2023-03-11T07:13:18.204Z,98083.23
2023-03-11T07:17:27.053Z,98101.27
2023-03-11T07:21:35.684Z,98112.48
2023-03-11T07:25:51.934Z,98127.94
2023-03-11T07:29:59.805Z,98140.33
2023-03-11T07:34:12.505Z,98149.70
2023-03-11T07:38:21.173Z,98156.33
2023-03-11T07:42:28.846Z,98170.96
2023-03-11T07:46:36.838Z,98191.27
2023-03-11T07:50:47.999Z,98207.03
2023-03-11T07:54:55.482Z,98220.20
2023-03-11T07:59:04.821Z,98232.40
2023-03-11T08:03:13.068Z,98245.69
2023-03-11T08:07:22.040Z,98264.89
2023-03-11T08:11:30.257Z,98277.77
2023-03-11T08:15:40.076Z,98290.53
2023-03-11T08:19:48.347Z,98311.30
2023-03-11T08:24:00.621Z,98329.48
2023-03-11T08:28:10.036Z,98342.48
2023-03-11T08:32:18.245Z,98355.20
2023-03-11T08:36:26.646Z,98364.43
2023-03-11T08:40:34.970Z,98386.17
2023-03-11T08:44:42.706Z,98411.38
2023-03-11T08:48:50.045Z,98419.61
2023-03-11T08:53:00.894Z,98436.66
2023-03-11T08:57:08.867Z,98451.47
2023-03-11T09:01:16.667Z,98454.34
2023-03-11T09:05:24.460Z,98469.58
2023-03-11T09:09:31.801Z,98479.61
2023-03-11T09:13:41.177Z,98494.14
2023-03-11T09:17:49.221Z,98510.67
2023-03-11T09:21:56.914Z,98522.41
2023-03-11T09:26:05.669Z,98535.45
2023-03-11T09:30:18.064Z,98545.06
2023-03-11T09:34:26.352Z,98556.54
2023-03-11T09:38:38.168Z,98574.09
2023-03-11T09:42:55.472Z,98585.04
2023-03-11T09:47:38.555Z,98598.08
2023-03-11T09:51:50.726Z,98602.00
2023-03-11T09:56:00.023Z,98619.85
2023-03-11T10:00:14.342Z,98640.44
2023-03-11T10:04:27.040Z,98644.17
2023-03-11T10:08:40.792Z,98660.66
2023-03-11T10:12:56.472Z,98664.98
2023-03-11T10:17:16.038Z,98674.14
2023-03-11T10:21:34.669Z,98681.62
2023-03-11T10:25:51.352Z,98688.89
2023-03-11T10:30:07.590Z,98699.40
2023-03-11T10:34:19.414Z,98710.95
2023-03-11T10:38:30.811Z,98713.32
2023-03-11T10:42:39.520Z,98720.64
2023-03-11T10:46:48.115Z,98723.88
2023-03-11T10:51:03.120Z,98735.91
2023-03-11T10:55:14.058Z,98744.48
2023-03-11T10:59:28.490Z,98757.15
2023-03-11T11:03:37.590Z,98769.73
2023-03-11T11:07:46.063Z,98769.85
2023-03-11T11:12:08.119Z,98773.27
2023-03-11T11:16:23.244Z,98781.73
2023-03-11T11:20:33.130Z,98776.52
2023-03-11T11:24:47.069Z,98779.69
2023-03-11T11:29:09.553Z,98794.27
2023-03-11T11:33:29.800Z,98811.21
2023-03-11T11:37:39.154Z,98815.79
2023-03-11T11:41:52.459Z,98820.07
2023-03-11T11:46:02.269Z,98835.94
2023-03-11T11:50:18.292Z,98828.55
2023-03-11T11:54:29.924Z,98844.09
2023-03-11T11:58:38.585Z,98842.77
2023-03-11T12:02:57.816Z,98846.83
2023-03-11T12:07:16.763Z,98854.63
2023-03-11T12:11:28.771Z,98860.13
2023-03-11T12:15:41.173Z,98871.38
2023-03-11T12:19:53.926Z,98881.52
2023-03-11T12:24:16.032Z,98910.42
2023-03-11T12:28:30.603Z,98919.48
2023-03-11T12:32:41.870Z,98920.37
2023-03-11T12:36:50.951Z,98940.58
2023-03-11T12:41:04.311Z,98941.29
2023-03-11T12:45:38.593Z,98932.31
2023-03-11T12:49:47.118Z,98944.67
2023-03-11T12:53:55.533Z,98948.31
2023-03-11T12:58:26.368Z,98958.41
2023-03-11T13:02:49.582Z,98970.47
2023-03-11T13:07:13.866Z,98972.77
2023-03-11T13:11:41.029Z,98976.33
2023-03-11T13:15:48.980Z,98984.65
2023-03-11T13:19:59.331Z,98986.77
2023-03-11T13:24:36.587Z,99002.55
2023-03-11T13:29:15.051Z,99012.64
2023-03-11T13:33:30.592Z,99022.56
2023-03-11T13:37:51.004Z,99036.72
2023-03-11T13:41:59.415Z,99056.27
2023-03-11T13:46:09.897Z,99061.63
2023-03-11T13:50:22.828Z,99078.57
2023-03-11T13:54:43.602Z,99084.96
2023-03-11T13:58:51.202Z,99091.51
2023-03-11T14:03:00.950Z,99090.85
2023-03-11T14:07:21.600Z,99095.31
2023-03-11T14:11:31.164Z,99112.84
2023-03-11T14:15:47.204Z,99124.81
2023-03-11T14:20:15.118Z,99131.77
2023-03-11T14:24:26.163Z,99139.38
2023-03-11T14:28:36.467Z,99141.38
2023-03-11T14:32:44.284Z,99153.97
2023-03-11T14:36:56.596Z,99158.58
2023-03-11T14:41:06.980Z,99164.66
2023-03-11T14:45:18.585Z,99165.35
2023-03-11T14:49:26.886Z,99169.17
2023-03-11T14:53:39.263Z,99177.11
2023-03-11T14:57:51.074Z,99179.80
2023-03-11T15:02:01.447Z,99188.36
2023-03-11T15:06:14.569Z,99196.06
2023-03-11T15:10:24.074Z,99196.71
2023-03-11T15:14:35.213Z,99200.92
2023-03-11T15:18:43.217Z,99208.72
2023-03-11T15:23:02.218Z,99213.84
2023-03-11T15:27:30.158Z,99222.94
2023-03-11T15:31:40.150Z,99227.86
2023-03-11T15:35:51.039Z,99232.59
2023-03-11T15:40:12.658Z,99242.80
2023-03-11T15:44:29.155Z,99254.05
2023-03-11T15:48:37.210Z,99265.30
2023-03-11T15:52:44.954Z,99264.98
2023-03-11T15:56:52.925Z,99267.37
2023-03-11T16:01:00.769Z,99272.13
2023-03-11T16:05:16.264Z,99276.02
2023-03-11T16:09:28.357Z,99282.35
2023-03-11T16:13:36.195Z,99298.17
2023-03-11T16:17:49.803Z,99302.21
2023-03-11T16:21:58.876Z,99310.41
2023-03-11T16:26:08.512Z,99313.19
2023-03-11T16:30:17.762Z,99321.42
2023-03-11T16:34:27.029Z,99328.14
2023-03-11T16:38:37.788Z,99339.25
2023-03-11T16:42:46.409Z,99348.78
2023-03-11T16:46:54.347Z,99358.98
2023-03-11T16:51:03.198Z,99369.35
2023-03-11T16:55:11.971Z,99382.77
2023-03-11T16:59:21.020Z,99386.66
2023-03-11T17:03:34.480Z,99396.09
2023-03-11T17:07:48.998Z,99410.91
2023-03-11T17:11:56.597Z,99423.83
2023-03-11T17:16:05.141Z,99427.02
2023-03-11T17:20:14.736Z,99429.74
2023-03-11T17:24:22.323Z,99435.47
2023-03-11T17:28:30.170Z,99449.51
2023-03-11T17:32:38.135Z,99455.97
2023-03-11T17:36:45.967Z,99453.27
2023-03-11T17:40:53.940Z,99465.27
2023-03-11T17:45:01.757Z,99471.70
2023-03-11T17:49:11.423Z,99478.60
2023-03-11T17:53:19.151Z,99484.25
2023-03-11T17:57:26.904Z,99488.91
2023-03-11T18:01:36.383Z,99497.34
2023-03-11T18:05:44.548Z,99503.15
2023-03-11T18:09:54.028Z,99513.91
2023-03-11T18:14:02.229Z,99516.94
2023-03-11T18:18:10.457Z,99527.80
2023-03-11T18:22:18.902Z,99535.11
2023-03-11T18:26:28.838Z,99538.56
2023-03-11T18:30:39.842Z,99540.86
2023-03-11T18:34:50.634Z,99545.52
2023-03-11T18:38:59.487Z,99551.02
2023-03-11T18:43:07.991Z,99553.91
2023-03-11T18:47:16.348Z,99562.48
2023-03-11T18:51:24.943Z,99566.33
2023-03-11T18:55:32.157Z,99574.48
2023-03-11T18:59:40.090Z,99577.47
2023-03-11T19:03:50.480Z,99581.06
2023-03-11T19:07:58.635Z,99586.95
2023-03-11T19:12:06.640Z,99591.75
2023-03-11T19:16:15.555Z,99595.17
2023-03-11T19:20:27.275Z,99597.78
2023-03-11T19:24:35.498Z,99605.25
2023-03-11T19:28:43.379Z,99611.05
2023-03-11T19:32:53.258Z,99611.49
2023-03-11T19:37:01.101Z,99611.09
2023-03-11T19:41:10.224Z,99618.85
2023-03-11T19:45:18.394Z,99621.86
2023-03-11T19:49:26.211Z,99626.02
2023-03-11T19:53:34.475Z,99629.98
2023-03-11T19:57:42.438Z,99633.16
2023-03-11T20:01:50.915Z,99634.45
2023-03-11T20:06:05.349Z,99637.98
2023-03-11T20:10:17.412Z,99643.63
2023-03-11T20:14:25.753Z,99646.66
2023-03-11T20:18:34.897Z,99653.64
2023-03-11T20:22:43.340Z,99653.61
2023-03-11T20:26:51.792Z,99660.02
2023-03-11T20:30:59.761Z,99660.55
2023-03-11T20:35:10.186Z,99665.80
2023-03-11T20:39:19.175Z,99677.53
2023-03-11T20:43:26.836Z,99675.02
2023-03-11T20:47:34.451Z,99679.63
2023-03-11T20:51:44.117Z,99680.23
2023-03-11T20:55:52.298Z,99680.41
2023-03-11T21:00:01.000Z,99677.92
2023-03-11T21:04:09.576Z,99674.23
2023-03-11T21:08:18.832Z,99674.58
2023-03-11T21:12:29.229Z,99672.54
2023-03-11T21:16:40.328Z,99670.35
2023-03-11T21:20:48.245Z,99665.89
2023-03-11T21:24:57.167Z,99664.73
2023-03-11T21:29:05.654Z,99665.52
2023-03-11T21:33:14.439Z,99670.41
2023-03-11T21:37:22.565Z,99670.02
2023-03-11T21:41:31.353Z,99673.81
2023-03-11T21:45:41.072Z,99672.25
2023-03-11T21:49:49.593Z,99673.52
2023-03-11T21:53:57.972Z,99675.14
2023-03-11T21:58:06.098Z,99669.29
2023-03-11T22:02:17.817Z,99672.14
2023-03-11T22:06:26.034Z,99673.58
2023-03-11T22:10:35.575Z,99672.99
2023-03-11T22:14:43.159Z,99673.73
2023-03-11T22:18:51.410Z,99680.50
2023-03-11T22:22:59.484Z,99683.94
2023-03-11T22:27:07.014Z,99689.50
2023-03-11T22:31:16.996Z,99688.11
2023-03-11T22:35:25.763Z,99688.48
2023-03-11T22:39:33.561Z,99693.06
2023-03-11T22:43:42.016Z,99693.29
2023-03-11T22:47:50.436Z,99697.33
2023-03-11T22:51:59.650Z,99695.77
2023-03-11T22:56:12.883Z,99694.51
2023-03-11T23:00:22.958Z,99695.48
2023-03-11T23:04:30.904Z,99698.59
2023-03-11T23:08:39.426Z,99703.10
2023-03-11T23:12:48.351Z,99707.65
2023-03-11T23:16:56.334Z,99710.30
2023-03-11T23:21:03.933Z,99711.03
2023-03-11T23:25:16.085Z,99712.79
2023-03-11T23:29:23.884Z,99719.75
2023-03-11T23:33:31.559Z,99724.25
2023-03-11T23:37:39.304Z,99725.92
2023-03-11T23:41:46.873Z,99728.84
2023-03-11T23:45:55.149Z,99723.44
2023-03-11T23:50:02.916Z,99721.74
2023-03-11T23:54:10.597Z,99725.95
2023-03-11T23:58:19.112Z,99722.68
